Time;durP1;ratioP1;P1;durP2;ratioP2;P2;SDS_P1;SDS_P2;PMS_P1;PMS_P2;Temp;Humidity;BMP_temperature;BMP_pressure;BME280_temperature;BME280_humidity;BME280_pressure;Samples;Min_cycle;Max_cycle;Signal;HPM_P1;HPM_P2
2022/07/06 00:01:35;;;;;;;1.80;0.60;;;20.70;63.90;;;;;;6189131;23;20092;-73
2022/07/06 00:04:02;;;;;;;1.17;0.57;;;20.60;64.00;;;;;;6189240;23;20026;-73
2022/07/06 00:06:27;;;;;;;2.35;0.98;;;20.60;64.00;;;;;;6188734;23;20392;-73
2022/07/06 00:08:53;;;;;;;1.98;0.65;;;20.70;64.10;;;;;;6189101;23;20007;-73
2022/07/06 00:11:19;;;;;;;2.17;0.75;;;20.70;64.00;;;;;;6189616;23;20047;-73
2022/07/06 00:13:45;;;;;;;1.77;0.55;;;20.60;64.10;;;;;;6189092;23;20433;-73
2022/07/06 00:16:10;;;;;;;1.30;0.90;;;20.60;64.10;;;;;;6215561;23;20024;-73
2022/07/06 00:18:36;;;;;;;2.17;0.90;;;20.60;64.20;;;;;;6188838;23;20008;-73
2022/07/06 00:21:01;;;;;;;1.77;0.75;;;20.60;64.10;;;;;;6215182;23;20008;-73
2022/07/06 00:23:27;;;;;;;3.85;0.80;;;20.60;64.20;;;;;;6215587;23;20016;-73
2022/07/06 00:25:53;;;;;;;2.38;0.70;;;20.60;64.40;;;;;;6215346;23;20007;-73
2022/07/06 00:28:18;;;;;;;1.13;0.70;;;20.50;64.30;;;;;;6189017;23;20004;-73
2022/07/06 00:30:44;;;;;;;1.23;0.70;;;20.60;64.50;;;;;;6215274;23;20525;-73
2022/07/06 00:33:10;;;;;;;2.67;0.88;;;20.60;64.40;;;;;;6189029;23;20028;-73
2022/07/06 00:35:35;;;;;;;3.03;1.00;;;20.50;64.40;;;;;;6188589;23;20005;-73
2022/07/06 00:38:01;;;;;;;1.25;0.63;;;20.60;64.40;;;;;;6215266;23;20044;-73
2022/07/06 00:40:27;;;;;;;0.63;0.60;;;20.50;64.40;;;;;;6163905;23;20008;-73
2022/07/06 00:42:52;;;;;;;1.10;0.68;;;20.50;64.30;;;;;;6188931;23;20362;-73
2022/07/06 00:45:18;;;;;;;1.80;0.88;;;20.60;64.40;;;;;;6188657;23;20005;-73
2022/07/06 00:47:44;;;;;;;2.05;0.93;;;20.60;64.30;;;;;;6188821;23;20055;-73
2022/07/06 00:50:13;;;;;;;2.72;0.68;;;20.60;64.20;;;;;;6188616;23;20000;-73
2022/07/06 00:52:47;;;;;;;2.10;0.90;;;20.60;64.30;;;;;;6189211;23;20010;-73
2022/07/06 00:55:13;;;;;;;0.60;0.60;;;20.60;64.20;;;;;;6188495;23;20005;-73
2022/07/06 00:57:39;;;;;;;2.33;1.25;;;20.60;64.20;;;;;;6164045;23;20004;-73
2022/07/06 01:00:06;;;;;;;1.77;0.88;;;20.50;64.30;;;;;;6188845;23;20337;-73
2022/07/06 01:02:32;;;;;;;1.80;0.95;;;20.50;64.30;;;;;;6215264;23;20004;-73
2022/07/06 01:04:58;;;;;;;1.17;0.93;;;20.50;64.20;;;;;;6188236;23;20008;-73
2022/07/06 01:07:24;;;;;;;1.55;0.70;;;20.50;64.30;;;;;;6215279;23;20076;-73
2022/07/06 01:09:50;;;;;;;1.05;0.90;;;20.50;64.40;;;;;;6188439;23;20001;-73
2022/07/06 01:12:16;;;;;;;1.85;0.80;;;20.50;64.50;;;;;;6215198;23;20114;-73
2022/07/06 01:14:41;;;;;;;1.75;0.80;;;20.50;64.50;;;;;;6188636;23;20075;-73
2022/07/06 01:17:07;;;;;;;1.90;1.00;;;20.50;64.60;;;;;;6163776;23;20004;-73
2022/07/06 01:19:33;;;;;;;1.95;1.05;;;20.40;64.50;;;;;;6163277;23;20345;-73
2022/07/06 01:21:59;;;;;;;0.77;0.70;;;20.40;64.70;;;;;;6188627;23;20001;-73
2022/07/06 01:24:25;;;;;;;1.80;0.85;;;20.40;64.60;;;;;;6188336;23;20001;-73
2022/07/06 01:26:51;;;;;;;1.65;1.00;;;20.40;64.70;;;;;;6188582;23;20457;-73
2022/07/06 01:29:16;;;;;;;1.42;1.00;;;20.40;64.70;;;;;;6163531;23;20449;-73
2022/07/06 01:31:49;;;;;;;1.20;1.10;;;20.40;64.60;;;;;;6163442;23;19996;-73
2022/07/06 01:34:15;;;;;;;;;;;20.40;64.50;;;;;;6188650;23;20011;-73
2022/07/06 01:36:41;;;;;;;2.03;0.90;;;20.40;64.50;;;;;;6188308;23;19979;-73
2022/07/06 01:39:07;;;;;;;1.52;0.75;;;20.40;64.70;;;;;;6163473;23;20416;-73
2022/07/06 01:41:33;;;;;;;1.50;0.80;;;20.40;64.80;;;;;;6163584;23;20005;-73
2022/07/06 01:43:59;;;;;;;2.60;0.93;;;20.40;64.70;;;;;;6188345;23;20420;-73
2022/07/06 01:46:25;;;;;;;1.42;0.80;;;20.40;64.70;;;;;;6163982;23;20017;-73
2022/07/06 01:48:51;;;;;;;1.85;0.90;;;20.40;64.70;;;;;;6214614;23;20023;-73
2022/07/06 01:51:17;;;;;;;2.50;0.73;;;20.40;64.70;;;;;;6214748;23;20001;-73
2022/07/06 01:53:42;;;;;;;2.05;0.90;;;20.40;64.60;;;;;;6188035;23;20339;-73
2022/07/06 01:56:08;;;;;;;1.45;0.75;;;20.40;64.70;;;;;;6163463;23;19997;-73
2022/07/06 01:58:34;;;;;;;1.45;0.82;;;20.40;64.70;;;;;;6215012;23;20028;-73
2022/07/06 02:01:00;;;;;;;3.58;0.85;;;20.40;64.60;;;;;;6214759;23;20448;-73
2022/07/06 02:03:25;;;;;;;0.60;0.60;;;20.40;64.50;;;;;;6214346;23;20379;-73
2022/07/06 02:05:51;;;;;;;1.00;0.80;;;20.40;64.60;;;;;;6214561;23;20392;-73
2022/07/06 02:08:17;;;;;;;1.08;0.90;;;20.40;64.50;;;;;;6214781;23;20005;-73
2022/07/06 02:10:43;;;;;;;1.25;0.73;;;20.40;64.50;;;;;;6188089;23;20433;-73
2022/07/06 02:13:08;;;;;;;1.10;1.00;;;20.40;64.40;;;;;;6214688;23;20001;-73
2022/07/06 02:15:34;;;;;;;2.03;0.90;;;20.40;64.50;;;;;;6214418;23;20011;-73
2022/07/06 02:18:00;;;;;;;1.30;0.82;;;20.40;64.50;;;;;;6188045;23;20004;-73
2022/07/06 02:20:25;;;;;;;1.13;0.77;;;20.40;64.40;;;;;;6214450;23;20001;-73
2022/07/06 02:22:51;;;;;;;1.75;0.90;;;20.40;64.50;;;;;;6214743;23;20187;-73
2022/07/06 02:25:16;;;;;;;2.15;0.93;;;20.40;64.40;;;;;;6187911;23;20456;-73
2022/07/06 02:27:42;;;;;;;1.30;0.90;;;20.40;64.40;;;;;;6187918;23;20004;-73
2022/07/06 02:30:08;;;;;;;1.67;0.82;;;20.40;64.40;;;;;;6214662;23;20000;-73
2022/07/06 02:32:34;;;;;;;2.28;0.80;;;20.40;64.40;;;;;;6214478;23;20020;-73
2022/07/06 02:34:59;;;;;;;1.35;0.70;;;20.40;64.40;;;;;;6214471;23;20519;-73
2022/07/06 02:37:25;;;;;;;1.95;1.08;;;20.40;64.40;;;;;;6214288;23;20075;-73
2022/07/06 02:39:50;;;;;;;0.80;0.70;;;20.40;64.40;;;;;;6214449;23;20009;-73
2022/07/06 02:42:16;;;;;;;2.88;0.88;;;20.40;64.40;;;;;;6189691;23;20024;-73
2022/07/06 02:44:42;;;;;;;0.95;0.80;;;20.40;64.40;;;;;;6216459;23;20448;-73
2022/07/06 02:47:07;;;;;;;1.33;0.68;;;20.40;64.30;;;;;;6216117;23;20028;-73
2022/07/06 02:49:33;;;;;;;1.10;0.70;;;20.40;64.20;;;;;;6216345;23;20338;-73
2022/07/06 02:51:59;;;;;;;0.70;0.70;;;20.40;64.10;;;;;;6216097;23;20003;-73
2022/07/06 02:54:24;;;;;;;1.67;0.98;;;20.40;64.10;;;;;;6190016;23;20204;-73
2022/07/06 02:56:52;;;;;;;3.15;0.90;;;20.40;64.10;;;;;;6216298;23;20106;-73
2022/07/06 02:59:19;;;;;;;1.08;0.80;;;20.40;64.10;;;;;;6216287;23;20011;-73
2022/07/06 03:01:45;;;;;;;1.25;0.85;;;20.40;64.10;;;;;;6215812;23;20004;-73
2022/07/06 03:04:10;;;;;;;1.27;0.90;;;20.40;64.10;;;;;;6216107;23;20032;-73
2022/07/06 03:06:36;;;;;;;1.27;1.00;;;20.30;64.00;;;;;;6189609;23;19996;-73
2022/07/06 03:09:02;;;;;;;0.70;0.70;;;20.30;64.10;;;;;;6216141;23;20007;-73
2022/07/06 03:11:28;;;;;;;2.05;0.70;;;20.30;64.10;;;;;;6189907;23;20228;-73
2022/07/06 03:13:53;;;;;;;0.98;0.77;;;20.40;64.20;;;;;;6215993;23;20026;-73
2022/07/06 03:16:19;;;;;;;1.83;1.00;;;20.30;64.20;;;;;;6189135;23;20008;-73
2022/07/06 03:18:44;;;;;;;1.17;0.80;;;20.30;64.30;;;;;;6216229;23;20028;-73
2022/07/06 03:21:10;;;;;;;2.38;0.77;;;20.30;64.30;;;;;;6189530;23;20001;-73
2022/07/06 03:23:36;;;;;;;0.80;0.80;;;20.30;64.30;;;;;;6189372;23;20004;-73
2022/07/06 03:26:02;;;;;;;1.80;0.88;;;20.30;64.30;;;;;;6216024;23;20028;-73
2022/07/06 03:28:27;;;;;;;2.63;1.20;;;20.30;64.30;;;;;;6215927;23;20435;-73
2022/07/06 03:30:53;;;;;;;1.65;0.77;;;20.30;64.20;;;;;;6189253;23;20418;-73
2022/07/06 03:33:19;;;;;;;1.52;0.70;;;20.30;64.20;;;;;;6164505;23;20043;-73
2022/07/06 03:35:45;;;;;;;1.58;1.05;;;20.30;64.20;;;;;;6189407;23;20007;-73
2022/07/06 03:38:10;;;;;;;1.42;0.80;;;20.30;64.10;;;;;;6189088;23;20024;-73
2022/07/06 03:40:36;;;;;;;2.60;0.90;;;20.30;64.10;;;;;;6189284;23;20015;-73
2022/07/06 03:43:01;;;;;;;1.10;0.68;;;20.30;64.10;;;;;;6215805;23;20340;-73
2022/07/06 03:45:27;;;;;;;1.38;0.82;;;20.30;64.10;;;;;;6215689;23;20001;-73
2022/07/06 03:47:53;;;;;;;1.20;0.80;;;20.30;64.00;;;;;;6215616;23;20069;-73
2022/07/06 03:50:18;;;;;;;1.73;0.82;;;20.30;64.00;;;;;;6215773;23;20004;-73
2022/07/06 03:52:44;;;;;;;1.05;0.80;;;20.30;64.00;;;;;;6189273;23;20349;-73
2022/07/06 03:55:13;;;;;;;0.70;0.70;;;20.30;64.00;;;;;;6189103;23;20445;-73
2022/07/06 03:57:40;;;;;;;0.70;0.68;;;20.30;64.00;;;;;;6189855;23;20011;-73
2022/07/06 04:00:06;;;;;;;0.60;0.60;;;20.30;63.90;;;;;;6164844;23;20013;-73
2022/07/06 04:02:32;;;;;;;0.93;0.70;;;20.30;63.90;;;;;;6189581;23;20024;-73
2022/07/06 04:04:58;;;;;;;1.25;0.77;;;20.30;64.00;;;;;;6189042;23;20349;-73
2022/07/06 04:07:23;;;;;;;2.55;0.82;;;20.30;64.00;;;;;;6189287;23;20461;-73
2022/07/06 04:09:49;;;;;;;0.77;0.77;;;20.30;64.00;;;;;;6215442;23;19997;-73
2022/07/06 04:12:14;;;;;;;1.42;0.80;;;20.30;63.90;;;;;;6189046;23;19997;-73
2022/07/06 04:14:40;;;;;;;1.58;0.90;;;20.20;63.90;;;;;;6215507;23;20005;-73
2022/07/06 04:19:49;;;;;;;2.08;1.00;;;20.30;63.90;;;;;;6192944;23;20079;-73
2022/07/06 04:22:15;;;;;;;0.93;0.70;;;20.30;63.90;;;;;;6215467;23;20001;-73
2022/07/06 04:24:41;;;;;;;0.77;0.70;;;20.20;64.00;;;;;;6164173;23;20005;-73
2022/07/06 04:27:07;;;;;;;1.42;1.00;;;20.30;64.00;;;;;;6215220;23;20342;-73
2022/07/06 04:29:32;;;;;;;1.02;0.90;;;20.20;63.90;;;;;;6164086;23;20319;-73
2022/07/06 04:31:58;;;;;;;0.70;0.70;;;20.20;63.90;;;;;;6215318;23;20019;-73
2022/07/06 04:34:24;;;;;;;1.00;0.80;;;20.20;63.90;;;;;;6188672;23;20008;-73
2022/07/06 04:36:49;;;;;;;0.88;0.80;;;20.20;63.80;;;;;;6188739;23;20015;-73
2022/07/06 04:39:15;;;;;;;1.65;0.70;;;20.20;63.70;;;;;;6215021;23;20048;-73
2022/07/06 04:41:40;;;;;;;1.15;0.80;;;20.20;63.70;;;;;;6215267;23;20000;-73
2022/07/06 04:44:06;;;;;;;1.13;0.70;;;20.20;63.70;;;;;;6214977;23;20011;-73
2022/07/06 04:46:32;;;;;;;1.45;0.70;;;20.20;63.70;;;;;;6215050;23;20504;-73
2022/07/06 04:48:57;;;;;;;1.02;0.75;;;20.20;63.60;;;;;;6215083;23;19996;-73
2022/07/06 04:51:23;;;;;;;2.30;0.82;;;20.20;63.50;;;;;;6215152;23;20000;-73
2022/07/06 04:53:48;;;;;;;0.70;0.70;;;20.20;63.50;;;;;;6188587;23;20055;-73
2022/07/06 04:56:14;;;;;;;0.75;0.68;;;20.20;63.50;;;;;;6215000;23;20000;-73
2022/07/06 04:58:40;;;;;;;3.22;0.70;;;20.20;63.40;;;;;;6188594;23;20361;-73
2022/07/06 05:01:06;;;;;;;1.00;0.73;;;20.20;63.40;;;;;;6188633;23;20004;-73
2022/07/06 05:03:33;;;;;;;0.70;0.50;;;20.20;63.40;;;;;;6188405;23;20001;-73
2022/07/06 05:05:58;;;;;;;1.52;0.73;;;20.20;63.40;;;;;;6188801;23;20015;-73
2022/07/06 05:08:24;;;;;;;0.70;0.50;;;20.20;63.40;;;;;;6215061;23;20005;-73
2022/07/06 05:10:51;;;;;;;0.95;0.65;;;20.20;63.40;;;;;;6188491;23;20004;-73
2022/07/06 05:13:17;;;;;;;0.82;0.80;;;20.20;63.50;;;;;;6188927;23;20000;-73
2022/07/06 05:15:42;;;;;;;0.50;0.50;;;20.20;63.50;;;;;;6214905;23;20004;-73
2022/07/06 05:18:08;;;;;;;0.70;0.70;;;20.20;63.50;;;;;;6214975;23;20444;-73
2022/07/06 05:20:34;;;;;;;0.77;0.70;;;20.20;63.50;;;;;;6215065;23;20004;-73
2022/07/06 05:22:59;;;;;;;0.60;0.60;;;20.10;63.60;;;;;;6214862;23;20072;-73
2022/07/06 05:25:25;;;;;;;1.48;0.80;;;20.10;63.50;;;;;;6187985;23;20019;-73
2022/07/06 05:27:51;;;;;;;0.90;0.70;;;20.10;63.50;;;;;;6214679;23;20005;-73
2022/07/06 05:30:16;;;;;;;1.77;0.70;;;20.10;63.50;;;;;;6214913;23;20080;-73
2022/07/06 05:32:42;;;;;;;0.82;0.80;;;20.10;63.50;;;;;;6188509;23;20060;-73
2022/07/06 05:35:08;;;;;;;1.45;0.93;;;20.10;63.50;;;;;;6214753;23;20001;-73
2022/07/06 05:37:33;;;;;;;1.23;0.73;;;20.10;63.60;;;;;;6188524;23;20011;-73
2022/07/06 05:39:59;;;;;;;1.10;0.68;;;20.10;63.60;;;;;;6214432;23;20028;-73
2022/07/06 05:42:25;;;;;;;1.65;0.70;;;20.10;63.70;;;;;;6214833;23;20032;-73
2022/07/06 05:44:54;;;;;;;1.55;0.85;;;20.10;63.70;;;;;;6214779;23;20039;-73
2022/07/06 05:50:12;;;;;;;0.93;0.70;;;20.10;63.90;;;;;;6214853;23;20042;-73
2022/07/06 05:52:42;;;;;;;0.88;0.88;;;20.10;63.90;;;;;;6215189;23;20333;-73
2022/07/06 05:55:09;;;;;;;2.20;1.10;;;20.10;64.00;;;;;;6187955;23;20027;-73
2022/07/06 05:57:34;;;;;;;0.70;0.70;;;20.10;64.10;;;;;;6163615;23;20000;-73
2022/07/06 06:00:00;;;;;;;2.13;0.80;;;20.10;64.20;;;;;;6214771;23;20318;-73
2022/07/06 06:02:25;;;;;;;2.35;0.90;;;20.10;64.20;;;;;;6214699;23;20460;-73
2022/07/06 06:04:52;;;;;;;1.50;1.00;;;20.10;64.20;;;;;;6214481;23;20012;-73
2022/07/06 06:07:18;;;;;;;1.13;0.80;;;20.10;64.20;;;;;;6188134;23;20007;-73
2022/07/06 06:09:44;;;;;;;1.45;0.70;;;20.10;64.20;;;;;;6188116;23;20028;-73
2022/07/06 06:12:09;;;;;;;1.13;1.02;;;20.10;64.30;;;;;;6163549;23;20001;-73
2022/07/06 06:14:35;;;;;;;1.02;0.93;;;20.10;64.30;;;;;;6215090;23;20012;-73
2022/07/06 06:17:00;;;;;;;2.92;1.10;;;20.10;64.30;;;;;;6216547;23;20009;-73
2022/07/06 06:19:26;;;;;;;1.15;0.80;;;20.10;64.30;;;;;;6216910;23;20004;-73
2022/07/06 06:21:52;;;;;;;1.35;0.90;;;20.10;64.40;;;;;;6216555;23;20816;-73
2022/07/06 06:24:17;;;;;;;1.65;0.75;;;20.10;64.50;;;;;;6189946;23;20433;-73
2022/07/06 06:26:43;;;;;;;1.67;0.73;;;20.10;64.50;;;;;;6216578;23;20035;-73
2022/07/06 06:29:09;;;;;;;0.80;0.80;;;20.10;64.60;;;;;;6189899;23;20004;-73
2022/07/06 06:31:34;;;;;;;1.20;0.80;;;20.10;64.60;;;;;;6216725;23;20001;-73
2022/07/06 06:34:00;;;;;;;1.55;0.80;;;20.10;64.60;;;;;;6216641;23;20007;-73
2022/07/06 06:36:26;;;;;;;1.27;0.82;;;20.10;64.60;;;;;;6190003;23;20011;-73
2022/07/06 06:38:52;;;;;;;1.15;1.05;;;20.10;64.50;;;;;;6189597;23;20016;-73
2022/07/06 06:41:20;;;;;;;1.45;0.80;;;20.10;64.60;;;;;;6216438;23;20032;-73
2022/07/06 06:43:46;;;;;;;1.38;0.82;;;20.10;64.70;;;;;;6216339;23;20501;-73
2022/07/06 06:46:11;;;;;;;1.02;0.85;;;20.10;65.00;;;;;;6216333;23;20028;-73
2022/07/06 06:48:37;;;;;;;1.75;1.00;;;20.10;65.20;;;;;;6165060;23;19997;-73
2022/07/06 06:51:04;;;;;;;0.70;0.70;;;20.10;65.10;;;;;;6216374;23;20068;-73
2022/07/06 06:53:29;;;;;;;2.30;0.80;;;20.10;65.00;;;;;;6189500;23;20001;-73
2022/07/06 06:55:55;;;;;;;1.77;1.10;;;20.10;65.50;;;;;;6189867;23;20467;-73
2022/07/06 06:58:21;;;;;;;2.53;0.90;;;20.10;65.60;;;;;;6216074;23;20005;-73
2022/07/06 07:00:47;;;;;;;0.95;0.95;;;20.10;65.80;;;;;;6190018;23;20000;-73
2022/07/06 07:03:13;;;;;;;1.35;0.75;;;20.00;66.10;;;;;;6216271;23;20015;-73
2022/07/06 07:05:38;;;;;;;1.52;1.13;;;20.00;66.30;;;;;;6216001;23;20080;-73
2022/07/06 07:08:04;;;;;;;0.90;0.90;;;20.10;66.50;;;;;;6215907;23;19997;-73
2022/07/06 07:10:30;;;;;;;1.00;0.90;;;20.00;66.40;;;;;;6189628;23;20001;-73
2022/07/06 07:12:56;;;;;;;3.13;0.90;;;20.00;66.40;;;;;;6189670;23;20008;-73
2022/07/06 07:15:21;;;;;;;2.25;1.10;;;20.00;66.40;;;;;;6216259;23;20005;-73
2022/07/06 07:17:47;;;;;;;1.70;0.90;;;20.00;66.20;;;;;;6215962;23;20082;-73
2022/07/06 07:20:13;;;;;;;1.50;0.82;;;20.10;66.20;;;;;;6189714;23;20374;-73
2022/07/06 07:22:38;;;;;;;1.67;0.80;;;20.10;66.00;;;;;;6215920;23;20082;-73
2022/07/06 07:25:05;;;;;;;0.93;0.80;;;20.10;65.90;;;;;;6189427;23;20061;-72
2022/07/06 07:27:30;;;;;;;0.80;0.80;;;20.10;65.80;;;;;;6164489;23;20020;-72
2022/07/06 07:29:56;;;;;;;0.70;0.57;;;20.10;65.70;;;;;;6215869;23;20052;-72
2022/07/06 07:32:22;;;;;;;1.23;0.80;;;20.10;65.50;;;;;;6189505;23;20433;-72
2022/07/06 07:34:47;;;;;;;1.73;0.63;;;20.10;65.40;;;;;;6164669;23;20089;-72
2022/07/06 07:37:13;;;;;;;1.25;0.90;;;20.10;65.40;;;;;;6188889;23;20012;-72
2022/07/06 07:39:38;;;;;;;1.08;0.98;;;20.10;65.50;;;;;;6215594;23;20020;-72
2022/07/06 07:42:04;;;;;;;1.40;0.88;;;20.10;65.70;;;;;;6215832;23;20009;-73
2022/07/06 07:44:30;;;;;;;1.30;0.90;;;20.10;65.70;;;;;;6215821;23;20005;-73
2022/07/06 07:46:55;;;;;;;0.95;0.90;;;20.10;65.70;;;;;;6189440;23;20028;-73
2022/07/06 07:49:21;;;;;;;1.05;0.95;;;20.10;65.90;;;;;;6215616;23;20077;-73
2022/07/06 07:51:50;;;;;;;1.17;0.80;;;20.10;65.80;;;;;;6215732;23;20001;-73
2022/07/06 07:54:16;;;;;;;1.10;1.00;;;20.10;65.80;;;;;;6189870;23;20001;-73
2022/07/06 07:56:41;;;;;;;1.98;1.00;;;20.10;65.70;;;;;;6189420;23;20012;-73
2022/07/06 07:59:07;;;;;;;0.63;0.63;;;20.10;65.60;;;;;;6189122;23;20009;-73
2022/07/06 08:01:33;;;;;;;2.15;1.08;;;20.10;65.60;;;;;;6189507;23;20001;-73
2022/07/06 08:03:59;;;;;;;1.67;1.13;;;20.10;65.50;;;;;;6215740;23;20054;-73
2022/07/06 08:06:24;;;;;;;1.40;0.90;;;20.10;65.50;;;;;;6215326;23;20046;-73
2022/07/06 08:08:50;;;;;;;1.13;0.60;;;20.10;65.30;;;;;;6215831;23;20119;-73
2022/07/06 08:11:16;;;;;;;1.52;0.80;;;20.10;65.30;;;;;;6189140;23;20028;-73
2022/07/06 08:13:41;;;;;;;0.95;0.63;;;20.10;65.30;;;;;;6188972;23;20001;-73
2022/07/06 08:16:08;;;;;;;1.45;0.80;;;20.10;65.30;;;;;;6189269;23;20007;-73
2022/07/06 08:18:34;;;;;;;0.82;0.80;;;20.10;65.30;;;;;;6189276;23;20005;-73
2022/07/06 08:20:59;;;;;;;1.17;0.80;;;20.10;65.30;;;;;;6188956;23;20005;-73
2022/07/06 08:23:25;;;;;;;0.82;0.77;;;20.10;65.30;;;;;;6215465;23;20100;-73
2022/07/06 08:25:50;;;;;;;1.88;0.90;;;20.10;65.30;;;;;;6188784;23;20011;-73
2022/07/06 08:28:16;;;;;;;1.20;0.80;;;20.10;65.50;;;;;;6215450;23;20007;-73
2022/07/06 08:30:42;;;;;;;1.15;0.80;;;20.20;65.50;;;;;;6215337;23;20337;-73
2022/07/06 08:33:07;;;;;;;0.80;0.80;;;20.20;65.40;;;;;;6215269;23;20001;-73
2022/07/06 08:35:33;;;;;;;0.77;0.77;;;20.20;65.30;;;;;;6188778;23;20460;-73
2022/07/06 08:37:59;;;;;;;0.88;0.88;;;20.20;65.40;;;;;;6188275;23;20077;-73
2022/07/06 08:40:26;;;;;;;0.93;0.80;;;20.20;65.30;;;;;;6215281;23;20001;-73
2022/07/06 08:42:53;;;;;;;1.70;0.85;;;20.20;65.30;;;;;;6164335;23;20005;-73
2022/07/06 08:45:19;;;;;;;0.85;0.85;;;20.20;65.30;;;;;;6215474;23;20378;-73
2022/07/06 08:47:45;;;;;;;2.50;0.90;;;20.20;65.20;;;;;;6188869;23;19996;-73
2022/07/06 08:50:10;;;;;;;1.73;1.00;;;20.20;65.20;;;;;;6163782;23;19996;-73
2022/07/06 08:52:37;;;;;;;0.80;0.80;;;20.20;65.20;;;;;;6163946;23;20008;-73
2022/07/06 08:55:03;;;;;;;1.55;0.90;;;20.20;65.20;;;;;;6188692;23;20027;-73
2022/07/06 08:57:28;;;;;;;0.77;0.77;;;20.10;65.10;;;;;;6215523;23;20001;-73
2022/07/06 08:59:54;;;;;;;1.55;1.00;;;20.20;65.30;;;;;;6215161;23;20005;-73
2022/07/06 09:02:20;;;;;;;2.40;0.95;;;20.20;65.30;;;;;;6188569;23;20007;-73
2022/07/06 09:04:45;;;;;;;2.47;0.90;;;20.20;65.20;;;;;;6188246;23;20012;-73
2022/07/06 09:07:11;;;;;;;1.52;0.90;;;20.20;65.30;;;;;;6163608;23;20001;-73
2022/07/06 09:09:37;;;;;;;1.02;0.75;;;20.10;64.90;;;;;;6215125;23;20003;-73
2022/07/06 09:12:03;;;;;;;0.63;0.63;;;20.20;64.90;;;;;;6188779;23;20004;-73
2022/07/06 09:14:29;;;;;;;1.05;0.80;;;20.10;64.70;;;;;;6215052;23;20009;-73
2022/07/06 09:17:06;;;;;;;1.35;0.90;;;20.20;65.60;;;;;;6163800;23;20083;-73
2022/07/06 09:19:32;;;;;;;0.80;0.80;;;20.10;64.40;;;;;;6189194;23;20341;-73
2022/07/06 09:21:58;;;;;;;0.75;0.73;;;20.20;64.50;;;;;;6188777;23;20004;-73
2022/07/06 09:24:26;;;;;;;1.40;0.80;;;20.20;64.40;;;;;;6188186;23;20409;-73
2022/07/06 09:26:54;;;;;;;1.27;1.00;;;20.10;64.40;;;;;;6188803;23;19996;-73
2022/07/06 09:29:28;;;;;;;0.60;0.60;;;20.20;64.40;;;;;;6214823;23;20001;-73
2022/07/06 09:32:01;;;;;;;0.95;0.90;;;20.20;64.30;;;;;;6187983;23;20400;-73
2022/07/06 09:34:43;;;;;;;1.65;0.90;;;20.20;64.20;;;;;;6163695;23;20456;-73
2022/07/06 09:37:09;;;;;;;2.35;1.08;;;20.20;64.10;;;;;;6214523;23;20001;-73
2022/07/06 09:39:34;;;;;;;1.42;0.93;;;20.20;64.40;;;;;;6188289;23;20020;-73
2022/07/06 09:42:03;;;;;;;1.08;1.00;;;20.20;64.30;;;;;;6188411;23;20000;-73
2022/07/06 09:44:33;;;;;;;0.93;0.93;;;20.20;64.40;;;;;;6164152;23;20001;-73
2022/07/06 09:47:02;;;;;;;0.98;0.77;;;20.20;64.40;;;;;;6188321;23;20067;-73
2022/07/06 09:49:28;;;;;;;1.20;0.75;;;20.20;64.40;;;;;;6138995;23;20000;-73
2022/07/06 09:51:58;;;;;;;1.30;0.68;;;20.20;64.10;;;;;;6163686;23;20001;-73
2022/07/06 09:54:24;;;;;;;0.70;0.70;;;20.20;64.20;;;;;;6187921;23;20001;-73
2022/07/06 09:56:53;;;;;;;0.60;0.60;;;20.20;64.10;;;;;;6188258;23;20016;-73
2022/07/06 09:59:22;;;;;;;0.70;0.70;;;20.20;64.10;;;;;;6164614;23;20001;-73
2022/07/06 10:01:51;;;;;;;1.00;0.80;;;20.20;64.20;;;;;;6163287;23;20135;-73
2022/07/06 10:04:18;;;;;;;1.20;1.00;;;20.30;64.30;;;;;;6214550;23;20005;-73
2022/07/06 10:06:44;;;;;;;1.52;0.82;;;20.20;64.10;;;;;;6214908;23;20001;-72
2022/07/06 10:09:10;;;;;;;1.15;0.80;;;20.30;64.10;;;;;;6188158;23;20039;-72
2022/07/06 10:11:51;;;;;;;1.85;1.00;;;20.20;64.00;;;;;;6188158;23;19997;-72
2022/07/06 10:14:24;;;;;;;3.05;1.00;;;20.20;63.70;;;;;;6189381;23;20001;-72
2022/07/06 10:16:50;;;;;;;0.70;0.70;;;20.30;63.90;;;;;;6214359;23;20396;-72
2022/07/06 10:19:17;;;;;;;0.98;0.80;;;20.30;64.00;;;;;;6214460;23;20000;-72
2022/07/06 10:21:43;;;;;;;1.25;0.85;;;20.30;64.10;;;;;;6163635;23;20004;-72
2022/07/06 10:24:09;;;;;;;0.98;0.80;;;20.30;63.60;;;;;;6188201;23;20462;-73
2022/07/06 10:26:35;;;;;;;0.68;0.68;;;20.30;63.70;;;;;;6163252;23;20004;-73
2022/07/06 10:29:04;;;;;;;1.70;0.88;;;20.30;63.60;;;;;;6214651;23;20010;-73
2022/07/06 10:31:30;;;;;;;0.80;0.80;;;20.30;63.60;;;;;;6163296;23;20004;-73
2022/07/06 10:34:00;;;;;;;3.85;0.90;;;20.30;63.60;;;;;;6163428;23;20024;-73
2022/07/06 10:36:25;;;;;;;0.90;0.90;;;20.30;63.70;;;;;;6188899;23;20444;-73
2022/07/06 10:38:52;;;;;;;0.77;0.70;;;20.30;63.70;;;;;;6163266;23;20067;-73
2022/07/06 10:41:18;;;;;;;0.90;0.82;;;20.30;63.70;;;;;;6162890;23;20400;-73
2022/07/06 10:43:45;;;;;;;1.13;0.65;;;20.30;63.60;;;;;;6163372;23;20005;-73
2022/07/06 10:46:16;;;;;;;1.48;0.90;;;20.30;63.50;;;;;;6187782;23;20001;-73
2022/07/06 10:48:45;;;;;;;1.30;0.95;;;20.30;64.50;;;;;;6164209;23;19997;-73
2022/07/06 10:51:11;;;;;;;0.77;0.77;;;20.30;63.30;;;;;;6163768;23;20001;-73
2022/07/06 10:53:39;;;;;;;1.40;1.00;;;20.40;63.40;;;;;;6163368;23;20051;-73
2022/07/06 10:56:06;;;;;;;0.70;0.70;;;20.40;63.50;;;;;;6214543;23;20345;-73
2022/07/06 10:58:41;;;;;;;1.15;0.80;;;20.30;63.20;;;;;;6163336;23;20054;-73
2022/07/06 11:01:07;;;;;;;1.27;0.80;;;20.40;63.00;;;;;;6214287;23;20071;-73
2022/07/06 11:03:34;;;;;;;0.80;0.73;;;20.40;63.00;;;;;;6216350;23;20063;-73
2022/07/06 11:06:01;;;;;;;1.55;0.80;;;20.40;63.00;;;;;;6216255;23;20032;-73
2022/07/06 11:08:52;;;;;;;0.70;0.70;;;20.40;63.00;;;;;;6164944;23;20127;-73
2022/07/06 11:11:21;;;;;;;0.82;0.82;;;20.40;62.70;;;;;;6167028;23;20012;-73
2022/07/06 11:13:53;;;;;;;1.05;0.80;;;20.40;62.70;;;;;;6215956;23;20457;-73
2022/07/06 11:16:19;;;;;;;0.93;0.80;;;20.40;62.70;;;;;;6189693;23;20058;-73
2022/07/06 11:18:58;;;;;;;1.27;1.00;;;20.40;62.70;;;;;;6165245;23;20004;-73
2022/07/06 11:21:31;;;;;;;0.70;0.65;;;20.40;62.50;;;;;;6166856;23;20083;-73
2022/07/06 11:23:57;;;;;;;1.17;0.75;;;20.40;62.20;;;;;;6166259;23;20341;-73
2022/07/06 11:26:22;;;;;;;0.88;0.70;;;20.40;62.40;;;;;;6164640;23;20079;-73
2022/07/06 11:28:48;;;;;;;1.65;0.90;;;20.40;62.70;;;;;;6188423;23;20036;-73
2022/07/06 11:31:14;;;;;;;1.38;0.77;;;20.40;62.40;;;;;;6215971;23;20080;-73
2022/07/06 11:33:40;;;;;;;0.88;0.70;;;20.40;62.50;;;;;;6189438;23;19997;-73
2022/07/06 11:36:13;;;;;;;0.70;0.70;;;20.50;62.40;;;;;;6189567;23;20054;-73
2022/07/06 11:38:39;;;;;;;0.68;0.68;;;20.40;61.90;;;;;;6189565;23;20020;-73
2022/07/06 11:41:05;;;;;;;0.80;0.70;;;20.40;61.90;;;;;;6215988;23;20004;-73
2022/07/06 11:43:30;;;;;;;1.10;0.63;;;20.40;62.00;;;;;;6215556;23;20039;-73
2022/07/06 11:45:56;;;;;;;2.05;1.08;;;20.50;61.60;;;;;;6215643;23;20051;-73
2022/07/06 11:48:22;;;;;;;0.70;0.70;;;20.40;61.70;;;;;;6189366;23;20000;-73
2022/07/06 11:51:03;;;;;;;1.17;0.73;;;20.40;61.70;;;;;;6215982;23;20001;-73
2022/07/06 11:53:29;;;;;;;0.70;0.70;;;20.40;62.00;;;;;;6189608;23;20341;-73
2022/07/06 11:55:54;;;;;;;1.17;0.70;;;20.40;62.00;;;;;;6164512;23;20075;-73
2022/07/06 11:58:24;;;;;;;0.95;0.80;;;20.40;62.10;;;;;;6215357;23;20346;-73
2022/07/06 12:01:06;;;;;;;0.50;0.50;;;20.50;62.40;;;;;;6215847;23;20024;-73
2022/07/06 12:03:32;;;;;;;0.73;0.63;;;20.50;62.20;;;;;;6164324;23;20008;-73
2022/07/06 12:05:58;;;;;;;1.98;0.75;;;20.50;61.80;;;;;;6188814;23;20331;-73
2022/07/06 12:08:24;;;;;;;0.70;0.70;;;20.50;61.70;;;;;;6215642;23;20060;-73
2022/07/06 12:10:50;;;;;;;0.88;0.70;;;20.50;61.70;;;;;;6189287;23;20001;-73
2022/07/06 12:13:15;;;;;;;0.85;0.63;;;20.50;61.80;;;;;;6188886;23;20000;-73
2022/07/06 12:15:41;;;;;;;0.82;0.60;;;20.50;61.70;;;;;;6215569;23;20388;-73
2022/07/06 12:18:07;;;;;;;0.52;0.52;;;20.50;61.60;;;;;;6189321;23;20532;-73
2022/07/06 12:20:32;;;;;;;0.50;0.50;;;20.50;61.60;;;;;;6188868;23;20043;-73
2022/07/06 12:23:05;;;;;;;0.60;0.60;;;20.60;61.80;;;;;;6164478;23;20058;-73
2022/07/06 12:25:35;;;;;;;0.70;0.63;;;20.60;61.60;;;;;;6164108;23;20322;-73
2022/07/06 12:28:01;;;;;;;0.40;0.40;;;20.60;61.80;;;;;;6164066;23;20083;-73
2022/07/06 12:30:26;;;;;;;0.63;0.63;;;20.60;61.80;;;;;;6164114;23;20032;-73
2022/07/06 12:33:18;;;;;;;0.60;0.60;;;20.60;61.80;;;;;;6189032;23;20004;-73
2022/07/06 12:35:44;;;;;;;0.77;0.70;;;20.60;61.50;;;;;;6189610;23;20444;-73
2022/07/06 12:38:09;;;;;;;2.03;0.60;;;20.60;61.70;;;;;;6183919;23;20104;-73
2022/07/06 12:40:38;;;;;;;0.60;0.60;;;20.60;61.70;;;;;;6183585;23;20377;-73
2022/07/06 12:43:04;;;;;;;0.52;0.52;;;20.60;61.80;;;;;;6183814;23;20087;-73
2022/07/06 12:45:30;;;;;;;1.58;0.70;;;20.60;61.70;;;;;;6183483;23;20005;-73
2022/07/06 12:48:00;;;;;;;1.15;0.60;;;20.60;61.70;;;;;;6159143;23;20001;-73
2022/07/06 12:50:36;;;;;;;1.00;0.70;;;20.70;61.30;;;;;;6183691;23;20517;-73